createdAt,value
2023-01-13T00:00:58.284Z,98089.47
2023-01-13T00:01:59.470Z,98093.97
2023-01-13T00:03:00.668Z,98093.66
2023-01-13T00:04:04.928Z,98087.59
2023-01-13T00:05:06.488Z,98082.91
2023-01-13T00:06:09.221Z,98085.72
2023-01-13T00:07:10.516Z,98082.28
2023-01-13T00:08:11.729Z,98082.75
2023-01-13T00:09:12.895Z,98090.69
2023-01-13T00:10:14.184Z,98081.47
2023-01-13T00:11:15.909Z,98082.91
2023-01-13T00:12:17.235Z,98075.09
2023-01-13T00:13:18.573Z,98077.44
2023-01-13T00:14:22.114Z,98068.59
2023-01-13T00:15:23.351Z,98074.94
2023-01-13T00:16:24.690Z,98072.16
2023-01-13T00:17:25.892Z,98069.19
2023-01-13T00:18:27.421Z,98062.66
2023-01-13T00:19:28.816Z,98070.59
2023-01-13T00:20:30.119Z,98067.78
2023-01-13T00:21:31.481Z,98060.13
2023-01-13T00:22:33.871Z,98062.00
2023-01-13T00:23:36.019Z,98060.56
2023-01-13T00:24:37.191Z,98063.53
2023-01-13T00:25:38.378Z,98054.03
2023-01-13T00:26:39.670Z,98058.84
2023-01-13T00:27:41.309Z,98056.00
2023-01-13T00:28:42.608Z,98060.09
2023-01-13T00:29:43.985Z,98045.91
2023-01-13T00:30:46.563Z,98056.19
2023-01-13T00:31:49.280Z,98056.50
2023-01-13T00:32:50.510Z,98057.41
2023-01-13T00:33:52.035Z,98057.59
2023-01-13T00:34:53.492Z,98048.88
2023-01-13T00:35:58.336Z,98059.59
2023-01-13T00:36:59.573Z,98048.38
2023-01-13T00:38:00.784Z,98047.16
2023-01-13T00:39:02.065Z,98050.41
2023-01-13T00:40:03.738Z,98044.50
2023-01-13T00:41:07.035Z,98049.78
2023-01-13T00:42:08.584Z,98052.13
2023-01-13T00:43:09.823Z,98049.78
2023-01-13T00:44:11.080Z,98049.16
2023-01-13T00:45:12.316Z,98052.13
2023-01-13T00:46:14.915Z,98056.66
2023-01-13T00:47:16.241Z,98056.31
2023-01-13T00:48:18.353Z,98054.78
2023-01-13T00:49:19.693Z,98048.56
2023-01-13T00:50:21.062Z,98053.06
2023-01-13T00:51:22.364Z,98056.00
2023-01-13T00:52:23.898Z,98045.41
2023-01-13T00:53:25.753Z,98054.16
2023-01-13T00:54:27.960Z,98049.94
2023-01-13T00:55:31.990Z,98050.25
2023-01-13T00:56:40.241Z,98049.50
2023-01-13T00:57:42.339Z,98039.19
2023-01-13T00:58:44.623Z,98041.06
2023-01-13T00:59:46.350Z,98038.44
2023-01-13T01:00:48.441Z,98039.50
2023-01-13T01:01:49.784Z,98035.00
2023-01-13T01:02:51.068Z,98030.78
2023-01-13T01:03:53.181Z,98036.41
2023-01-13T01:04:54.362Z,98034.06
2023-01-13T01:05:55.980Z,98037.38
2023-01-13T01:06:57.205Z,98031.09
2023-01-13T01:07:58.470Z,98030.66
2023-01-13T01:08:59.675Z,98027.22
2023-01-13T01:10:01.000Z,98022.69
2023-01-13T01:11:06.464Z,98022.38
2023-01-13T01:12:07.761Z,98030.03
2023-01-13T01:13:09.004Z,98021.47
2023-01-13T01:14:11.587Z,98016.94
2023-01-13T01:15:12.782Z,98025.03
2023-01-13T01:16:15.549Z,98022.88
2023-01-13T01:17:16.760Z,98019.44
2023-01-13T01:18:18.839Z,98017.91
2023-01-13T01:19:20.229Z,98020.41
2023-01-13T01:20:21.435Z,98020.41
2023-01-13T01:21:24.124Z,98023.69
2023-01-13T01:22:25.321Z,98013.56
2023-01-13T01:23:28.331Z,98018.84
2023-01-13T01:24:29.541Z,98023.06
2023-01-13T01:25:32.102Z,98022.44
2023-01-13T01:26:33.417Z,98019.19
2023-01-13T01:27:34.653Z,98020.75
2023-01-13T01:28:36.065Z,98015.91
2023-01-13T01:29:37.246Z,98017.00
2023-01-13T01:30:38.869Z,98025.25
2023-01-13T01:31:40.106Z,98017.94
2023-01-13T01:32:41.582Z,98011.09
2023-01-13T01:33:43.159Z,98010.28
2023-01-13T01:34:44.696Z,98022.75
2023-01-13T01:35:46.056Z,98018.88
2023-01-13T01:36:47.351Z,98023.06
2023-01-13T01:37:48.593Z,98013.25
2023-01-13T01:38:50.055Z,98021.19
2023-01-13T01:39:51.316Z,98023.84
2023-01-13T01:40:52.549Z,98018.09
2023-01-13T01:41:53.772Z,98015.75
2023-01-13T01:42:55.164Z,98015.91
2023-01-13T01:43:57.797Z,98021.19
2023-01-13T01:45:00.267Z,98019.97
2023-01-13T01:46:04.772Z,98016.84
2023-01-13T01:47:06.021Z,98024.78
2023-01-13T01:48:07.485Z,98020.13
2023-01-13T01:49:12.834Z,98024.31
2023-01-13T01:50:14.569Z,98020.72
2023-01-13T01:51:15.868Z,98019.19
2023-01-13T01:52:29.919Z,98018.41
2023-01-13T01:53:32.629Z,98013.09
2023-01-13T01:54:39.883Z,98010.47
2023-01-13T01:55:43.837Z,98013.72
2023-01-13T01:56:46.259Z,98009.97
2023-01-13T01:57:50.511Z,98003.13
2023-01-13T02:00:11.551Z,97999.84
2023-01-13T02:01:16.055Z,98008.59
2023-01-13T02:02:17.808Z,98004.22
2023-01-13T02:03:19.476Z,98002.81
2023-01-13T02:04:23.296Z,98000.16
2023-01-13T02:05:24.498Z,98011.88
2023-01-13T02:06:26.858Z,98001.72
2023-01-13T02:07:30.425Z,98004.22
2023-01-13T02:08:32.377Z,98009.66
2023-01-13T02:09:34.867Z,98004.84
2023-01-13T02:10:36.175Z,98008.88
2023-01-13T02:11:37.589Z,98010.16
2023-01-13T02:12:39.911Z,98008.91
2023-01-13T02:13:41.200Z,98004.84
2023-01-13T02:14:45.415Z,98003.75
2023-01-13T02:15:55.575Z,98007.81
2023-01-13T02:17:00.091Z,98004.97
2023-01-13T02:18:04.036Z,98003.75
2023-01-13T02:19:23.572Z,98000.31
2023-01-13T02:20:43.293Z,97997.50
2023-01-13T02:21:57.820Z,97998.94
2023-01-13T02:23:17.885Z,97997.84
2023-01-13T02:24:34.375Z,97992.53
2023-01-13T02:25:38.860Z,98000.94
2023-01-13T02:27:09.189Z,97991.75
2023-01-13T02:28:16.248Z,97997.69
2023-01-13T02:29:36.169Z,97995.66
2023-01-13T02:30:40.046Z,97992.69
2023-01-13T02:31:43.221Z,97998.75
2023-01-13T02:33:03.340Z,97980.53
2023-01-13T02:34:04.893Z,97995.03
2023-01-13T02:35:08.343Z,97988.16
2023-01-13T02:36:17.648Z,97984.72
2023-01-13T02:37:23.259Z,97976.50
2023-01-13T02:38:36.951Z,97979.91
2023-01-13T02:39:52.082Z,97975.72
2023-01-13T02:40:58.492Z,97975.56
2023-01-13T02:42:06.007Z,97965.72
2023-01-13T02:43:13.295Z,97977.88
2023-01-13T02:44:18.344Z,97970.25
2023-01-13T02:45:23.785Z,97962.31
2023-01-13T02:46:31.433Z,97961.81
2023-01-13T02:47:36.411Z,97966.34
2023-01-13T02:48:38.229Z,97961.81
2023-01-13T02:49:43.294Z,97974.28
2023-01-13T02:50:47.411Z,97962.75
2023-01-13T02:51:49.113Z,97972.09
2023-01-13T02:52:58.669Z,97966.34
2023-01-13T02:54:02.017Z,97961.97
2023-01-13T02:55:09.409Z,97959.34
2023-01-13T02:56:11.937Z,97973.97
2023-01-13T02:57:14.621Z,97971.19
2023-01-13T02:58:18.582Z,97974.75
2023-01-13T02:59:20.202Z,97956.06
2023-01-13T03:00:23.081Z,97969.00
2023-01-13T03:01:24.682Z,97965.72
2023-01-13T03:02:25.978Z,97962.59
2023-01-13T03:03:27.271Z,97957.28
2023-01-13T03:04:47.320Z,97958.56
2023-01-13T03:05:51.017Z,97953.25
2023-01-13T03:07:01.933Z,97964.97
2023-01-13T03:08:12.370Z,97959.94
2023-01-13T03:09:21.131Z,97958.88
2023-01-13T03:10:41.245Z,97968.53
2023-01-13T03:12:02.737Z,97962.91
2023-01-13T03:13:13.322Z,97967.13
2023-01-13T03:14:26.645Z,97961.97
2023-01-13T03:15:27.886Z,97960.75
2023-01-13T03:16:40.994Z,97959.81
2023-01-13T03:17:44.035Z,97954.50
2023-01-13T03:18:55.835Z,97960.44
2023-01-13T03:20:03.350Z,97956.38
2023-01-13T03:21:10.034Z,97957.78
2023-01-13T03:22:11.527Z,97950.44
2023-01-13T03:23:18.825Z,97948.88
2023-01-13T03:24:23.565Z,97945.63
2023-01-13T03:25:29.455Z,97953.41
2023-01-13T03:26:30.695Z,97951.53
2023-01-13T03:27:50.871Z,97947.19
2023-01-13T03:28:54.411Z,97942.97
2023-01-13T03:30:19.077Z,97949.06
2023-01-13T03:31:24.600Z,97940.00
2023-01-13T03:32:35.104Z,97937.84
2023-01-13T03:33:41.364Z,97945.91
2023-01-13T03:34:48.458Z,97941.72
2023-01-13T03:35:52.061Z,97947.94
2023-01-13T03:36:55.270Z,97943.75
2023-01-13T03:38:00.383Z,97940.00
2023-01-13T03:39:07.695Z,97940.16
2023-01-13T03:40:13.092Z,97938.63
2023-01-13T03:41:18.883Z,97928.19
2023-01-13T03:42:22.905Z,97921.47
2023-01-13T03:43:27.782Z,97928.16
2023-01-13T03:44:32.668Z,97927.84
2023-01-13T03:45:35.602Z,97931.13
2023-01-13T03:46:42.281Z,97918.53
2023-01-13T03:47:45.913Z,97933.44
2023-01-13T03:48:51.073Z,97918.38
2023-01-13T03:49:59.659Z,97926.00
2023-01-13T03:51:13.754Z,97920.19
2023-01-13T03:52:23.973Z,97923.66
2023-01-13T03:53:34.445Z,97921.63
2023-01-13T03:54:39.639Z,97924.88
2023-01-13T03:55:44.448Z,97911.47
2023-01-13T03:56:47.803Z,97915.06
2023-01-13T03:57:54.949Z,97906.50
2023-01-13T03:58:57.520Z,97901.66
2023-01-13T04:00:00.127Z,97911.78
2023-01-13T04:01:10.741Z,97904.78
2023-01-13T04:02:14.247Z,97910.09
2023-01-13T04:03:20.442Z,97905.56
2023-01-13T04:04:24.676Z,97909.75
2023-01-13T04:05:27.159Z,97907.28
2023-01-13T04:06:47.180Z,97901.66
2023-01-13T04:08:14.600Z,97891.72
2023-01-13T04:09:31.019Z,97890.78
2023-01-13T04:10:38.155Z,97897.16
2023-01-13T04:11:41.855Z,97894.97
2023-01-13T04:12:52.744Z,97898.09
2023-01-13T04:13:55.107Z,97887.81
2023-01-13T04:14:56.456Z,97885.81
2023-01-13T04:15:59.370Z,97882.81
2023-01-13T04:17:00.681Z,97885.97
2023-01-13T04:18:03.261Z,97884.69
2023-01-13T04:19:04.811Z,97881.72
2023-01-13T04:20:06.337Z,97889.84
2023-01-13T04:21:07.774Z,97887.66
2023-01-13T04:22:09.241Z,97896.69
2023-01-13T04:23:10.871Z,97882.22
2023-01-13T04:24:12.176Z,97890.44
2023-01-13T04:25:13.740Z,97884.09
2023-01-13T04:26:14.972Z,97888.56
2023-01-13T04:27:19.089Z,97885.47
2023-01-13T04:28:21.025Z,97885.63
2023-01-13T04:29:22.507Z,97885.00
2023-01-13T04:30:23.850Z,97887.50
2023-01-13T04:31:25.290Z,97875.50
2023-01-13T04:32:26.623Z,97886.09
2023-01-13T04:33:28.029Z,97885.31
2023-01-13T04:34:29.249Z,97882.97
2023-01-13T04:35:31.142Z,97886.72
2023-01-13T04:36:32.427Z,97889.38
2023-01-13T04:37:33.659Z,97890.28
2023-01-13T04:38:34.939Z,97895.13
2023-01-13T04:39:36.195Z,97881.09
2023-01-13T04:40:37.550Z,97885.75
2023-01-13T04:41:38.903Z,97886.69
2023-01-13T04:42:40.172Z,97889.19
2023-01-13T04:43:41.411Z,97886.06
2023-01-13T04:44:42.723Z,97889.00
2023-01-13T04:45:44.570Z,97882.47
2023-01-13T04:46:46.107Z,97889.16
2023-01-13T04:47:47.621Z,97883.59
2023-01-13T04:48:48.992Z,97887.94
2023-01-13T04:49:50.393Z,97886.38
2023-01-13T04:50:51.672Z,97885.41
2023-01-13T04:51:53.008Z,97883.72
2023-01-13T04:52:54.844Z,97886.38
2023-01-13T04:53:56.068Z,97882.94
2023-01-13T04:54:57.258Z,97892.16
2023-01-13T04:55:58.549Z,97880.28
2023-01-13T04:56:59.836Z,97887.00
2023-01-13T04:58:10.730Z,97883.25
2023-01-13T04:59:12.488Z,97874.72
2023-01-13T05:00:14.923Z,97876.25
2023-01-13T05:01:16.264Z,97874.66
2023-01-13T05:02:17.617Z,97883.25
2023-01-13T05:03:18.918Z,97880.78
2023-01-13T05:04:20.331Z,97880.63
2023-01-13T05:05:21.647Z,97882.50
2023-01-13T05:06:22.875Z,97875.63
2023-01-13T05:07:24.086Z,97886.09
2023-01-13T05:08:25.351Z,97890.13
2023-01-13T05:09:26.691Z,97882.34
2023-01-13T05:10:28.017Z,97886.69
2023-01-13T05:11:29.292Z,97893.41
2023-01-13T05:12:30.573Z,97881.88
2023-01-13T05:13:31.940Z,97886.69
2023-01-13T05:14:33.248Z,97884.53
2023-01-13T05:15:34.652Z,97887.94
2023-01-13T05:16:35.895Z,97889.66
2023-01-13T05:17:37.385Z,97896.34
2023-01-13T05:18:38.611Z,97892.31
2023-01-13T05:19:39.863Z,97895.09
2023-01-13T05:20:41.131Z,97892.75
2023-01-13T05:21:42.381Z,97890.28
2023-01-13T05:22:43.762Z,97893.53
2023-01-13T05:23:45.110Z,97889.66
2023-01-13T05:24:46.584Z,97884.97
2023-01-13T05:25:48.140Z,97886.53
2023-01-13T05:26:49.428Z,97888.56
2023-01-13T05:27:54.142Z,97882.31
2023-01-13T05:28:55.357Z,97883.88
2023-01-13T05:29:56.661Z,97884.66
2023-01-13T05:30:57.925Z,97877.03
2023-01-13T05:31:59.192Z,97888.06
2023-01-13T05:33:00.520Z,97886.06
2023-01-13T05:34:01.833Z,97889.94
2023-01-13T05:35:03.247Z,97887.13
2023-01-13T05:36:04.573Z,97881.72
2023-01-13T05:37:05.773Z,97881.56
2023-01-13T05:38:07.540Z,97879.69
2023-01-13T05:39:08.805Z,97884.22
2023-01-13T05:40:11.095Z,97873.94
2023-01-13T05:41:12.348Z,97874.06
2023-01-13T05:42:13.641Z,97868.44
2023-01-13T05:43:19.041Z,97869.53
2023-01-13T05:44:20.253Z,97874.69
2023-01-13T05:45:21.586Z,97865.31
2023-01-13T05:46:22.956Z,97870.47
2023-01-13T05:47:24.196Z,97879.34
2023-01-13T05:48:27.210Z,97873.00
2023-01-13T05:49:28.418Z,97872.81
2023-01-13T05:50:29.680Z,97869.34
2023-01-13T05:51:39.312Z,97867.66
2023-01-13T05:52:40.561Z,97878.13
2023-01-13T05:53:41.895Z,97881.22
2023-01-13T05:54:43.164Z,97870.16
2023-01-13T05:55:44.782Z,97877.03
2023-01-13T05:56:46.049Z,97872.03
2023-01-13T05:57:47.315Z,97871.72
2023-01-13T05:58:48.506Z,97878.13
2023-01-13T05:59:49.765Z,97878.75
2023-01-13T06:00:51.333Z,97867.22
2023-01-13T06:01:52.629Z,97872.84
2023-01-13T06:02:53.878Z,97876.88
2023-01-13T06:03:55.150Z,97881.72
2023-01-13T06:04:56.380Z,97875.81
2023-01-13T06:05:57.777Z,97873.94
2023-01-13T06:06:59.302Z,97878.91
2023-01-13T06:08:01.810Z,97881.56
2023-01-13T06:09:03.076Z,97886.53
2023-01-13T06:10:04.742Z,97882.81
2023-01-13T06:11:06.018Z,97887.63
2023-01-13T06:12:07.291Z,97887.31
2023-01-13T06:13:08.697Z,97892.16
2023-01-13T06:14:09.900Z,97889.50
2023-01-13T06:15:11.281Z,97895.13
2023-01-13T06:16:12.614Z,97895.75
2023-01-13T06:17:14.897Z,97897.44
2023-01-13T06:18:16.196Z,97897.00
2023-01-13T06:19:17.485Z,97894.81
2023-01-13T06:20:18.762Z,97895.56
2023-01-13T06:21:19.984Z,97899.94
2023-01-13T06:22:26.378Z,97894.66
2023-01-13T06:23:28.108Z,97901.34
2023-01-13T06:24:29.468Z,97892.44
2023-01-13T06:25:30.765Z,97890.88
2023-01-13T06:26:35.763Z,97891.22
2023-01-13T06:27:37.203Z,97899.50
2023-01-13T06:28:38.422Z,97887.13
2023-01-13T06:29:39.815Z,97889.78
2023-01-13T06:30:55.301Z,97886.84
2023-01-13T06:31:57.035Z,97887.13
2023-01-13T06:32:59.600Z,97886.03
2023-01-13T06:34:04.197Z,97888.56
2023-01-13T06:35:10.658Z,97881.84
2023-01-13T06:36:13.545Z,97880.63
2023-01-13T06:37:19.087Z,97879.06
2023-01-13T06:38:22.128Z,97872.06
2023-01-13T06:39:24.956Z,97879.22
2023-01-13T06:40:26.254Z,97875.31
2023-01-13T06:41:28.624Z,97872.22
2023-01-13T06:42:32.351Z,97873.75
2023-01-13T06:43:33.706Z,97872.50
2023-01-13T06:44:34.995Z,97877.03
2023-01-13T06:45:36.326Z,97873.78
2023-01-13T06:46:37.783Z,97876.41
2023-01-13T06:47:39.118Z,97876.75
2023-01-13T06:48:40.353Z,97872.50
2023-01-13T06:49:41.563Z,97867.53
2023-01-13T06:50:42.884Z,97875.16
2023-01-13T06:51:44.232Z,97872.06
2023-01-13T06:52:45.502Z,97871.13
2023-01-13T06:53:46.799Z,97869.72
2023-01-13T06:54:48.045Z,97870.81
2023-01-13T06:55:49.316Z,97868.47
2023-01-13T06:56:50.677Z,97867.88
2023-01-13T06:57:55.820Z,97866.31
2023-01-13T06:58:57.161Z,97861.78
2023-01-13T06:59:58.465Z,97864.28
2023-01-13T07:01:00.330Z,97861.91
2023-01-13T07:02:02.634Z,97863.19
2023-01-13T07:03:09.973Z,97869.88
2023-01-13T07:04:11.243Z,97865.22
2023-01-13T07:05:12.905Z,97865.06
2023-01-13T07:06:14.357Z,97866.44
2023-01-13T07:07:15.662Z,97867.53
2023-01-13T07:08:16.898Z,97869.56
2023-01-13T07:09:18.230Z,97856.94
2023-01-13T07:10:22.006Z,97862.56
2023-01-13T07:11:23.254Z,97867.09
2023-01-13T07:12:24.595Z,97861.63
2023-01-13T07:13:25.913Z,97861.91
2023-01-13T07:14:27.126Z,97864.72
2023-01-13T07:15:28.372Z,97871.44
2023-01-13T07:16:29.569Z,97860.09
2023-01-13T07:17:30.880Z,97862.72
2023-01-13T07:18:32.855Z,97867.72
2023-01-13T07:19:34.206Z,97867.38
2023-01-13T07:20:35.454Z,97874.88
2023-01-13T07:21:36.717Z,97871.13
2023-01-13T07:22:37.958Z,97869.56
2023-01-13T07:23:40.213Z,97863.50
2023-01-13T07:24:41.523Z,97865.84
2023-01-13T07:25:42.779Z,97864.44
2023-01-13T07:26:44.022Z,97861.63
2023-01-13T07:27:45.253Z,97872.84
2023-01-13T07:28:46.518Z,97869.41
2023-01-13T07:29:47.735Z,97872.84
2023-01-13T07:30:49.031Z,97873.94
2023-01-13T07:31:50.569Z,97873.16
2023-01-13T07:32:51.867Z,97872.06
2023-01-13T07:33:53.120Z,97871.78
2023-01-13T07:34:54.319Z,97872.22
2023-01-13T07:36:02.864Z,97875.66
2023-01-13T07:37:04.191Z,97879.56
2023-01-13T07:38:05.453Z,97877.69
2023-01-13T07:39:06.686Z,97875.16
2023-01-13T07:40:08.662Z,97867.09
2023-01-13T07:41:12.495Z,97873.16
2023-01-13T07:42:13.722Z,97865.38
2023-01-13T07:43:15.051Z,97866.00
2023-01-13T07:44:16.405Z,97865.22
2023-01-13T07:45:17.861Z,97866.00
2023-01-13T07:46:19.235Z,97866.75
2023-01-13T07:47:20.461Z,97870.03
2023-01-13T07:48:21.680Z,97867.38
2023-01-13T07:49:22.960Z,97874.44
2023-01-13T07:50:24.212Z,97879.06
2023-01-13T07:51:25.423Z,97870.34
2023-01-13T07:52:26.671Z,97876.13
2023-01-13T07:53:27.931Z,97876.09
2023-01-13T07:54:40.309Z,97879.06
2023-01-13T07:55:43.153Z,97875.31
2023-01-13T07:56:44.435Z,97879.53
2023-01-13T07:57:47.694Z,97883.91
2023-01-13T07:58:48.920Z,97883.75
2023-01-13T07:59:50.174Z,97889.19
2023-01-13T08:00:51.859Z,97885.31
2023-01-13T08:01:53.344Z,97881.41
2023-01-13T08:02:54.677Z,97885.31
2023-01-13T08:03:55.975Z,97890.28
2023-01-13T08:04:57.272Z,97890.28
2023-01-13T08:06:00.189Z,97892.47
2023-01-13T08:07:01.448Z,97893.09
2023-01-13T08:08:02.828Z,97896.34
2023-01-13T08:09:04.052Z,97897.78
2023-01-13T08:10:05.546Z,97899.78
2023-01-13T08:11:07.578Z,97900.09
2023-01-13T08:12:08.807Z,97906.19
2023-01-13T08:13:15.515Z,97912.56
2023-01-13T08:14:16.972Z,97911.81
2023-01-13T08:15:18.225Z,97915.22
2023-01-13T08:16:22.760Z,97919.28
2023-01-13T08:17:24.005Z,97922.25
2023-01-13T08:18:25.234Z,97923.34
2023-01-13T08:19:26.593Z,97924.44
2023-01-13T08:20:27.896Z,97926.31
2023-01-13T08:21:29.146Z,97929.41
2023-01-13T08:22:34.911Z,97928.63
2023-01-13T08:23:40.164Z,97935.81
2023-01-13T08:24:43.966Z,97934.41
2023-01-13T08:25:45.544Z,97942.03
2023-01-13T08:26:46.871Z,97940.66
2023-01-13T08:27:49.177Z,97948.13
2023-01-13T08:28:50.460Z,97952.19
2023-01-13T08:29:51.893Z,97957.31
2023-01-13T08:30:53.223Z,97961.84
2023-01-13T08:31:54.606Z,97966.97
2023-01-13T08:32:55.956Z,97966.31
2023-01-13T08:34:00.380Z,97961.50
2023-01-13T08:35:01.718Z,97962.41
2023-01-13T08:36:04.196Z,97966.28
2023-01-13T08:37:05.448Z,97963.81
2023-01-13T08:38:07.051Z,97967.84
2023-01-13T08:39:08.408Z,97965.50
2023-01-13T08:40:09.989Z,97967.69
2023-01-13T08:41:15.273Z,97974.38
2023-01-13T08:42:16.605Z,97973.31
2023-01-13T08:43:17.830Z,97974.69
2023-01-13T08:44:19.071Z,97984.00
2023-01-13T08:45:20.374Z,97990.56
2023-01-13T08:46:21.732Z,97994.47
2023-01-13T08:47:23.391Z,98003.50
2023-01-13T08:48:24.900Z,98015.78
2023-01-13T08:49:26.482Z,98020.16
2023-01-13T08:50:29.534Z,98021.34
2023-01-13T08:51:30.817Z,98024.13
2023-01-13T08:52:32.098Z,98031.63
2023-01-13T08:53:33.375Z,98045.94
2023-01-13T08:54:34.606Z,98055.88
2023-01-13T08:55:35.816Z,98047.59
2023-01-13T08:56:37.123Z,98051.28
2023-01-13T08:57:38.442Z,98063.03
2023-01-13T08:58:39.763Z,98063.94
2023-01-13T08:59:41.436Z,98056.25
2023-01-13T09:00:43.227Z,98059.91
2023-01-13T09:01:44.624Z,98055.19
2023-01-13T09:02:45.897Z,98060.41
2023-01-13T09:03:47.189Z,98046.59
2023-01-13T09:04:48.919Z,98045.50
2023-01-13T09:05:50.197Z,98053.72
2023-01-13T09:06:51.604Z,98051.88
2023-01-13T09:07:52.876Z,98051.97
2023-01-13T09:08:54.073Z,98042.69
2023-01-13T09:09:55.360Z,98047.38
2023-01-13T09:10:57.277Z,98042.38
2023-01-13T09:11:58.546Z,98050.91
2023-01-13T09:13:00.059Z,98050.81
2023-01-13T09:14:03.286Z,98050.31
2023-01-13T09:15:05.103Z,98055.31
2023-01-13T09:16:06.553Z,98055.78
2023-01-13T09:17:07.867Z,98059.19
2023-01-13T09:18:09.372Z,98066.94
2023-01-13T09:19:10.747Z,98064.78
2023-01-13T09:20:12.544Z,98060.88
2023-01-13T09:21:14.042Z,98070.09
2023-01-13T09:22:16.882Z,98062.63
2023-01-13T09:23:18.119Z,98070.66
2023-01-13T09:24:19.766Z,98066.78
2023-01-13T09:25:21.062Z,98075.84
2023-01-13T09:26:22.352Z,98068.75
2023-01-13T09:27:23.597Z,98073.84
2023-01-13T09:28:24.933Z,98076.81
2023-01-13T09:29:26.278Z,98078.31
2023-01-13T09:30:27.531Z,98077.59
2023-01-13T09:31:28.942Z,98080.22
2023-01-13T09:32:30.249Z,98079.25
2023-01-13T09:33:31.519Z,98085.03
2023-01-13T09:34:32.969Z,98084.16
2023-01-13T09:35:35.863Z,98084.94
2023-01-13T09:36:37.066Z,98079.44
2023-01-13T09:37:39.815Z,98065.75
2023-01-13T09:38:41.029Z,98079.94
2023-01-13T09:39:42.361Z,98073.25
2023-01-13T09:40:43.720Z,98072.38
2023-01-13T09:41:47.477Z,98072.72
2023-01-13T09:42:54.574Z,98072.91
2023-01-13T09:43:59.141Z,98080.22
2023-01-13T09:45:19.133Z,98080.50
2023-01-13T09:46:27.437Z,98093.16
2023-01-13T09:47:31.844Z,98087.53
2023-01-13T09:48:37.394Z,98087.09
2023-01-13T09:49:40.158Z,98088.94
2023-01-13T09:50:47.487Z,98086.31
2023-01-13T09:51:58.034Z,98094.22
2023-01-13T09:52:59.845Z,98089.25
2023-01-13T09:54:13.367Z,98091.47
2023-01-13T09:55:16.057Z,98097.66
2023-01-13T09:56:17.313Z,98093.47
2023-01-13T09:57:20.141Z,98102.63
2023-01-13T09:58:21.614Z,98103.72
2023-01-13T09:59:32.246Z,98112.16
2023-01-13T10:00:36.640Z,98112.44
2023-01-13T10:01:46.796Z,98118.03
2023-01-13T10:03:07.775Z,98102.94
2023-01-13T10:04:12.917Z,98103.72
2023-01-13T10:05:19.624Z,98095.78
2023-01-13T10:06:23.927Z,98097.97
2023-01-13T10:07:29.164Z,98097.47
2023-01-13T10:08:30.341Z,98091.91
2023-01-13T10:09:47.901Z,98089.72
2023-01-13T10:10:51.065Z,98092.06
2023-01-13T10:11:54.096Z,98100.56
2023-01-13T10:12:55.312Z,98095.13
2023-01-13T10:13:58.737Z,98093.41
2023-01-13T10:15:00.027Z,98098.84
2023-01-13T10:16:07.558Z,98100.25
2023-01-13T10:17:25.809Z,98099.81
2023-01-13T10:18:29.942Z,98101.97
2023-01-13T10:19:34.522Z,98096.97
2023-01-13T10:20:49.117Z,98095.13
2023-01-13T10:21:50.325Z,98098.44
2023-01-13T10:23:09.948Z,98107.47
2023-01-13T10:24:11.188Z,98100.94
2023-01-13T10:25:15.510Z,98097.66
2023-01-13T10:26:31.749Z,98102.63
2023-01-13T10:27:34.174Z,98100.56
2023-01-13T10:28:35.450Z,98097.47
2023-01-13T10:29:36.968Z,98105.41
2023-01-13T10:30:43.081Z,98100.56
2023-01-13T10:31:44.305Z,98096.88
2023-01-13T10:33:14.639Z,98100.44
2023-01-13T10:34:16.030Z,98098.16
2023-01-13T10:35:17.310Z,98096.81
2023-01-13T10:36:18.974Z,98099.59
2023-01-13T10:37:21.665Z,98109.88
2023-01-13T10:38:30.711Z,98105.19
2023-01-13T10:39:39.194Z,98111.88
2023-01-13T10:40:47.924Z,98109.72
2023-01-13T10:41:49.274Z,98109.84
2023-01-13T10:43:03.358Z,98115.13
2023-01-13T10:44:07.787Z,98111.41
2023-01-13T10:45:16.573Z,98114.22
2023-01-13T10:46:18.684Z,98111.88
2023-01-13T10:47:22.001Z,98118.13
2023-01-13T10:48:23.299Z,98109.59
2023-01-13T10:49:27.326Z,98117.22
2023-01-13T10:50:28.951Z,98112.38
2023-01-13T10:51:30.190Z,98120.72
2023-01-13T10:52:33.235Z,98128.97
2023-01-13T10:53:44.184Z,98118.03
2023-01-13T10:54:51.464Z,98127.81
2023-01-13T10:56:00.125Z,98108.94
2023-01-13T10:57:15.370Z,98111.91
2023-01-13T10:58:20.761Z,98116.22
2023-01-13T10:59:25.922Z,98116.03
2023-01-13T11:00:28.667Z,98125.53
2023-01-13T11:01:29.995Z,98116.34
2023-01-13T11:02:32.986Z,98109.00
2023-01-13T11:03:36.568Z,98118.75
2023-01-13T11:04:39.097Z,98114.66
2023-01-13T11:05:40.566Z,98113.00
2023-01-13T11:06:45.424Z,98113.97
2023-01-13T11:07:50.331Z,98111.31
2023-01-13T11:08:52.533Z,98115.63
2023-01-13T11:10:02.946Z,98116.59
2023-01-13T11:11:24.171Z,98120.81
2023-01-13T11:12:29.992Z,98111.84
2023-01-13T11:13:33.984Z,98120.88
2023-01-13T11:14:43.769Z,98114.38
2023-01-13T11:15:53.827Z,98128.69
2023-01-13T11:16:57.637Z,98119.78
2023-01-13T11:18:02.196Z,98119.78
2023-01-13T11:19:06.571Z,98115.56
2023-01-13T11:20:10.879Z,98122.41
2023-01-13T11:21:20.375Z,98125.53
2023-01-13T11:22:24.724Z,98129.28
2023-01-13T11:23:35.251Z,98134.56
2023-01-13T11:24:40.189Z,98127.53
2023-01-13T11:25:42.996Z,98136.03
2023-01-13T11:26:47.223Z,98138.81
2023-01-13T11:28:16.668Z,98146.28
2023-01-13T11:29:24.228Z,98141.28
2023-01-13T11:30:34.210Z,98144.06
2023-01-13T11:31:42.361Z,98155.28
2023-01-13T11:32:49.709Z,98143.94
2023-01-13T11:33:59.809Z,98142.47
2023-01-13T11:35:03.887Z,98153.84
2023-01-13T11:36:11.748Z,98149.03
2023-01-13T11:37:25.301Z,98154.00
2023-01-13T11:38:49.869Z,98155.94
2023-01-13T11:39:57.561Z,98157.91
2023-01-13T11:41:07.815Z,98149.00
2023-01-13T11:42:27.799Z,98149.28
2023-01-13T11:43:32.436Z,98146.94
2023-01-13T11:44:43.753Z,98147.72
2023-01-13T11:45:48.223Z,98142.72
2023-01-13T11:46:51.037Z,98153.38
2023-01-13T11:47:54.169Z,98155.91
2023-01-13T11:48:56.401Z,98149.53
2023-01-13T11:49:58.300Z,98152.66
2023-01-13T11:51:02.555Z,98152.38
2023-01-13T11:52:26.789Z,98150.97
2023-01-13T11:53:49.610Z,98145.22
2023-01-13T11:55:05.295Z,98145.09
2023-01-13T11:56:15.654Z,98150.25
2023-01-13T11:57:35.675Z,98151.16
2023-01-13T11:58:54.178Z,98145.09
2023-01-13T12:00:03.735Z,98138.00
2023-01-13T12:01:13.661Z,98129.78
2023-01-13T12:02:14.976Z,98128.72
2023-01-13T12:03:31.624Z,98125.47
2023-01-13T12:04:43.513Z,98120.16
2023-01-13T12:05:59.630Z,98114.75
2023-01-13T12:07:17.309Z,98115.84
2023-01-13T12:08:22.549Z,98107.78
2023-01-13T12:09:32.846Z,98110.94
2023-01-13T12:10:53.751Z,98117.59
2023-01-13T12:12:01.338Z,98116.09
2023-01-13T12:13:02.531Z,98122.16
2023-01-13T12:14:24.056Z,98116.91
2023-01-13T12:15:48.142Z,98122.06
2023-01-13T12:16:49.491Z,98122.22
2023-01-13T12:18:02.806Z,98124.84
2023-01-13T12:19:04.066Z,98133.47
2023-01-13T12:20:18.618Z,98136.91
2023-01-13T12:21:27.941Z,98138.53
2023-01-13T12:22:30.838Z,98138.97
2023-01-13T12:23:38.751Z,98135.88
2023-01-13T12:24:54.151Z,98135.13
2023-01-13T12:25:59.497Z,98146.22
2023-01-13T12:27:03.525Z,98145.09
2023-01-13T12:28:10.387Z,98142.44
2023-01-13T12:29:15.905Z,98148.53
2023-01-13T12:30:22.025Z,98145.25
2023-01-13T12:31:23.681Z,98146.66
2023-01-13T12:32:33.865Z,98143.06
2023-01-13T12:33:53.544Z,98148.38
2023-01-13T12:35:05.454Z,98156.97